createdAt,value
2018-05-13T00:01:04.275Z,8.70
2018-05-13T00:03:32.495Z,8.73
2018-05-13T00:06:01.090Z,8.67
2018-05-13T00:08:30.155Z,8.57
2018-05-13T00:10:58.404Z,9.40
2018-05-13T00:13:27.315Z,9.47
2018-05-13T00:15:55.572Z,9.27
2018-05-13T00:18:23.819Z,8.97
2018-05-13T00:20:52.768Z,8.90
2018-05-13T00:23:21.008Z,8.67
2018-05-13T00:25:49.247Z,9.67
2018-05-13T00:28:17.887Z,8.33
2018-05-13T00:30:46.130Z,8.40
2018-05-13T00:33:15.384Z,9.67
2018-05-13T00:35:43.807Z,9.53
2018-05-13T00:38:12.982Z,8.23
2018-05-13T00:40:41.137Z,9.13
2018-05-13T00:43:09.436Z,8.10
2018-05-13T00:45:38.912Z,8.50
2018-05-13T00:48:08.047Z,9.40
2018-05-13T00:50:37.106Z,9.67
2018-05-13T00:53:05.299Z,9.17
2018-05-13T00:55:33.565Z,8.90
2018-05-13T00:58:02.530Z,9.63
2018-05-13T01:00:30.872Z,9.27
2018-05-13T01:02:59.373Z,10.37
2018-05-13T01:05:27.615Z,9.50
2018-05-13T01:07:56.729Z,10.17
2018-05-13T01:10:24.887Z,15.43
2018-05-13T01:12:53.924Z,9.70
2018-05-13T01:15:22.540Z,9.53
2018-05-13T01:17:50.687Z,10.40
2018-05-13T01:20:18.923Z,11.53
2018-05-13T01:22:47.319Z,10.90
2018-05-13T01:25:16.527Z,9.57
2018-05-13T01:27:44.783Z,9.97
2018-05-13T01:30:13.452Z,9.43
2018-05-13T01:32:42.408Z,9.60
2018-05-13T01:35:10.695Z,8.30
2018-05-13T01:37:38.907Z,9.83
2018-05-13T01:40:07.352Z,10.50
2018-05-13T01:42:37.204Z,10.40
2018-05-13T01:45:13.444Z,10.57
2018-05-13T01:47:42.776Z,10.30
2018-05-13T01:50:10.991Z,9.63
2018-05-13T01:52:39.301Z,9.73
2018-05-13T01:55:08.236Z,12.23
2018-05-13T01:57:37.787Z,9.67
2018-05-13T02:00:08.096Z,9.60
2018-05-13T02:02:36.976Z,9.53
2018-05-13T02:05:05.313Z,9.60
2018-05-13T02:07:33.552Z,10.43
2018-05-13T02:10:03.216Z,10.07
2018-05-13T02:12:31.514Z,10.00
2018-05-13T02:14:59.748Z,9.40
2018-05-13T02:17:27.923Z,8.73
2018-05-13T02:19:57.140Z,8.77
2018-05-13T02:22:25.779Z,8.83
2018-05-13T02:24:54.848Z,9.07
2018-05-13T02:27:23.135Z,8.27
2018-05-13T02:29:52.116Z,11.83
2018-05-13T02:32:20.596Z,9.27
2018-05-13T02:34:49.524Z,8.97
2018-05-13T02:37:17.762Z,8.57
2018-05-13T02:39:46.752Z,9.20
2018-05-13T02:42:15.026Z,8.90
2018-05-13T02:44:43.280Z,8.50
2018-05-13T02:47:11.808Z,9.50
2018-05-13T02:49:40.772Z,9.27
2018-05-13T02:52:09.063Z,11.30
2018-05-13T02:54:38.057Z,8.80
2018-05-13T02:57:07.067Z,9.83
2018-05-13T02:59:35.564Z,8.80
2018-05-13T03:02:04.171Z,9.83
2018-05-13T03:04:32.451Z,10.27
2018-05-13T03:07:00.973Z,9.40
2018-05-13T03:09:29.960Z,9.17
2018-05-13T03:11:59.547Z,9.63
2018-05-13T03:14:29.071Z,9.33
2018-05-13T03:16:58.924Z,9.83
2018-05-13T03:19:27.246Z,9.20
2018-05-13T03:21:55.495Z,9.30
2018-05-13T03:24:23.713Z,9.23
2018-05-13T03:26:52.960Z,9.00
2018-05-13T03:29:21.278Z,9.93
2018-05-13T03:31:49.539Z,9.43
2018-05-13T03:34:17.871Z,10.17
2018-05-13T03:36:46.366Z,9.53
2018-05-13T03:39:14.660Z,9.60
2018-05-13T03:41:42.920Z,9.93
2018-05-13T03:44:12.045Z,9.93
2018-05-13T03:46:40.339Z,8.97
2018-05-13T03:49:08.544Z,9.43
2018-05-13T03:51:37.667Z,8.93
2018-05-13T03:54:05.823Z,8.77
2018-05-13T03:56:34.120Z,8.67
2018-05-13T03:59:02.780Z,8.17
2018-05-13T04:01:30.985Z,9.23
2018-05-13T04:03:59.305Z,9.67
2018-05-13T04:06:28.585Z,9.93
2018-05-13T04:11:12.243Z,10.23
2018-05-13T04:15:48.448Z,9.70
2018-05-13T04:18:17.418Z,12.10
2018-05-13T04:20:46.624Z,11.63
2018-05-13T04:23:14.904Z,11.00
2018-05-13T04:25:43.908Z,11.60
2018-05-13T04:28:12.064Z,12.93
2018-05-13T04:30:41.917Z,12.43
2018-05-13T04:33:10.136Z,14.27
2018-05-13T04:35:38.397Z,13.57
2018-05-13T04:38:06.808Z,14.20
2018-05-13T04:40:35.977Z,13.00
2018-05-13T04:43:04.240Z,15.07
2018-05-13T04:45:32.996Z,13.97
2018-05-13T04:48:01.144Z,14.27
2018-05-13T04:50:30.048Z,16.83
2018-05-13T04:52:58.640Z,15.07
2018-05-13T04:55:26.813Z,15.80
2018-05-13T04:57:55.767Z,19.90
2018-05-13T05:00:24.907Z,15.17
2018-05-13T05:02:53.433Z,15.87
2018-05-13T05:05:21.663Z,15.73
2018-05-13T05:07:50.776Z,17.90
2018-05-13T05:10:19.003Z,17.90
2018-05-13T05:12:48.171Z,16.63
2018-05-13T05:15:16.939Z,16.07
2018-05-13T05:17:45.092Z,15.70
2018-05-13T05:20:13.297Z,16.10
2018-05-13T05:22:42.384Z,15.67
2018-05-13T05:25:10.588Z,18.03
2018-05-13T05:27:39.548Z,16.43
2018-05-13T05:30:08.803Z,16.67
2018-05-13T05:32:38.767Z,18.37
2018-05-13T05:35:06.943Z,19.80
2018-05-13T05:37:35.254Z,19.53
2018-05-13T05:40:04.228Z,20.60
2018-05-13T05:42:32.495Z,21.03
2018-05-13T05:45:02.191Z,21.37
2018-05-13T05:47:30.417Z,23.43
2018-05-13T05:49:59.649Z,23.13
2018-05-13T05:52:28.125Z,24.97
2018-05-13T05:54:56.292Z,24.00
2018-05-13T05:57:24.435Z,23.97
2018-05-13T05:59:52.549Z,24.53
2018-05-13T06:02:20.662Z,24.00
2018-05-13T06:04:49.118Z,26.30
2018-05-13T06:07:17.482Z,28.97
2018-05-13T06:09:45.570Z,27.10
2018-05-13T06:12:13.776Z,28.43
2018-05-13T06:14:42.642Z,27.93
2018-05-13T06:17:11.418Z,26.03
2018-05-13T06:19:39.855Z,27.03
2018-05-13T06:22:07.930Z,27.40
2018-05-13T06:24:36.078Z,28.67
2018-05-13T06:27:04.530Z,28.93
2018-05-13T06:29:32.557Z,29.20
2018-05-13T06:32:01.342Z,31.97
2018-05-13T06:34:30.342Z,28.70
2018-05-13T06:36:58.700Z,30.00
2018-05-13T06:39:27.484Z,30.07
2018-05-13T06:41:56.413Z,28.97
2018-05-13T06:44:28.766Z,31.40
2018-05-13T06:46:57.858Z,28.93
2018-05-13T06:49:26.871Z,30.57
2018-05-13T06:51:54.974Z,31.13
2018-05-13T06:54:23.192Z,29.83
2018-05-13T06:56:51.984Z,29.37
2018-05-13T06:59:20.980Z,29.27
2018-05-13T07:01:49.877Z,30.00
2018-05-13T07:04:18.434Z,30.77
2018-05-13T07:06:46.874Z,30.10
2018-05-13T07:09:15.015Z,31.70
2018-05-13T07:18:26.867Z,28.70
2018-05-13T07:20:55.403Z,29.90
2018-05-13T07:23:23.525Z,29.20
2018-05-13T07:25:51.894Z,29.67
2018-05-13T07:28:20.142Z,29.60
2018-05-13T07:30:49.306Z,31.07
2018-05-13T07:33:17.373Z,29.97
2018-05-13T07:35:45.544Z,29.90
2018-05-13T07:38:13.840Z,30.40
2018-05-13T07:40:43.214Z,34.17
2018-05-13T07:43:11.322Z,31.80
2018-05-13T07:45:39.814Z,32.20
2018-05-13T07:48:08.880Z,31.80
2018-05-13T07:50:36.987Z,30.63
2018-05-13T07:53:07.057Z,33.10
2018-05-13T07:55:35.146Z,31.30
2018-05-13T07:58:03.651Z,29.97
2018-05-13T08:00:31.945Z,30.83
2018-05-13T08:03:00.864Z,31.50
2018-05-13T08:05:29.335Z,29.57
2018-05-13T08:07:57.831Z,30.27
2018-05-13T08:10:34.359Z,30.80
2018-05-13T08:14:32.515Z,31.73
2018-05-13T08:17:01.427Z,30.37
2018-05-13T08:19:30.249Z,31.73
2018-05-13T08:22:01.875Z,31.93
2018-05-13T08:24:30.905Z,31.13
2018-05-13T08:26:59.796Z,31.20
2018-05-13T08:29:28.785Z,33.33
2018-05-13T08:31:57.855Z,33.27
2018-05-13T08:34:26.415Z,34.03
2018-05-13T08:37:09.043Z,38.87
2018-05-13T08:39:42.338Z,34.30
2018-05-13T08:42:11.776Z,35.43
2018-05-13T08:44:40.450Z,36.90
2018-05-13T08:47:08.976Z,37.00
2018-05-13T08:49:37.144Z,39.03
2018-05-13T08:52:05.932Z,38.83
2018-05-13T08:54:34.355Z,38.80
2018-05-13T08:57:02.484Z,41.20
2018-05-13T08:59:30.884Z,43.10
2018-05-13T09:02:03.678Z,42.67
2018-05-13T09:04:34.780Z,47.43
2018-05-13T09:07:03.903Z,47.40
2018-05-13T09:09:34.928Z,49.97
2018-05-13T09:12:03.906Z,51.07
2018-05-13T09:14:32.011Z,50.47
2018-05-13T09:17:02.170Z,52.70
2018-05-13T09:19:30.507Z,55.27
2018-05-13T09:21:59.721Z,55.87
2018-05-13T09:24:28.579Z,56.73
2018-05-13T09:26:56.642Z,57.40
2018-05-13T09:29:25.282Z,53.67
2018-05-13T09:31:54.406Z,60.87
2018-05-13T09:34:23.553Z,56.37
2018-05-13T09:37:45.897Z,63.43
2018-05-13T09:40:14.806Z,60.20
2018-05-13T09:42:48.875Z,64.17
2018-05-13T09:45:20.275Z,58.17
2018-05-13T09:47:49.402Z,60.13
2018-05-13T09:50:17.795Z,62.07
2018-05-13T09:52:45.863Z,59.60
2018-05-13T09:55:14.136Z,61.10
2018-05-13T09:57:47.853Z,58.37
2018-05-13T10:00:16.314Z,57.83
2018-05-13T10:02:44.420Z,61.73
2018-05-13T10:05:13.322Z,69.50
2018-05-13T10:07:41.826Z,63.97
2018-05-13T10:10:16.508Z,73.40
2018-05-13T10:12:45.346Z,75.40
2018-05-13T10:15:14.166Z,73.47
2018-05-13T10:17:42.809Z,76.73
2018-05-13T10:20:11.022Z,83.97
2018-05-13T10:22:39.112Z,93.80
2018-05-13T10:25:07.164Z,96.80
2018-05-13T10:27:44.167Z,91.17
2018-05-13T10:30:15.240Z,92.80
2018-05-13T10:38:32.182Z,101.40
2018-05-13T10:41:00.711Z,95.97
2018-05-13T10:43:28.850Z,101.50
2018-05-13T10:45:57.412Z,95.57
2018-05-13T10:48:26.409Z,93.30
2018-05-13T10:50:55.145Z,89.20
2018-05-13T10:53:23.403Z,91.07
2018-05-13T10:55:51.602Z,95.47
2018-05-13T10:58:20.125Z,88.53
2018-05-13T11:00:48.915Z,120.73
2018-05-13T11:03:17.914Z,101.80
2018-05-13T11:05:46.063Z,99.47
2018-05-13T11:08:15.304Z,87.77
2018-05-13T11:10:44.324Z,104.13
2018-05-13T11:13:12.488Z,96.80
2018-05-13T11:15:40.778Z,82.90
2018-05-13T11:18:09.571Z,109.63
2018-05-13T11:20:37.892Z,100.70
2018-05-13T11:23:06.263Z,100.50
2018-05-13T11:25:35.147Z,132.20
2018-05-13T11:28:05.111Z,94.43
2018-05-13T11:30:33.991Z,92.13
2018-05-13T11:33:02.302Z,84.27
2018-05-13T11:35:30.948Z,89.50
2018-05-13T11:37:59.251Z,83.50
2018-05-13T11:40:27.731Z,91.17
2018-05-13T11:42:56.188Z,92.40
2018-05-13T11:45:24.467Z,82.40
2018-05-13T11:47:52.614Z,92.40
2018-05-13T11:50:21.105Z,84.60
2018-05-13T11:52:49.202Z,86.40
2018-05-13T11:55:17.375Z,88.10
2018-05-13T11:57:47.116Z,88.97
2018-05-13T12:00:15.758Z,81.57
2018-05-13T12:02:45.061Z,87.80
2018-05-13T12:05:13.914Z,108.17
2018-05-13T12:07:42.930Z,108.03
2018-05-13T12:10:11.127Z,101.23
2018-05-13T12:12:40.567Z,79.33
2018-05-13T12:15:09.549Z,86.73
2018-05-13T12:17:38.768Z,97.47
2018-05-13T12:20:07.699Z,91.07
2018-05-13T12:22:36.011Z,89.40
2018-05-13T12:25:04.386Z,74.40
2018-05-13T12:27:37.737Z,84.83
2018-05-13T12:30:09.064Z,85.40
2018-05-13T12:32:37.852Z,86.87
2018-05-13T12:35:06.845Z,92.87
2018-05-13T12:37:35.738Z,92.00
2018-05-13T12:40:05.878Z,82.47
2018-05-13T12:42:34.540Z,87.30
2018-05-13T12:45:03.548Z,82.73
2018-05-13T12:47:31.905Z,79.13
2018-05-13T12:50:01.979Z,79.90
2018-05-13T12:52:30.588Z,82.27
2018-05-13T12:54:58.671Z,81.50
2018-05-13T12:57:28.524Z,87.93
2018-05-13T12:59:57.105Z,74.00
2018-05-13T13:02:26.653Z,70.30
2018-05-13T13:04:54.831Z,82.37
2018-05-13T13:07:23.279Z,75.27
2018-05-13T13:09:51.452Z,78.53
2018-05-13T13:12:19.598Z,76.97
2018-05-13T13:14:48.250Z,80.40
2018-05-13T13:17:16.414Z,81.37
2018-05-13T13:19:45.033Z,90.10
2018-05-13T13:22:13.962Z,76.63
2018-05-13T13:24:42.261Z,75.60
2018-05-13T13:27:10.483Z,78.73
2018-05-13T13:29:43.244Z,67.00
2018-05-13T13:32:11.795Z,76.23
2018-05-13T13:34:39.886Z,63.93
2018-05-13T13:37:07.897Z,74.57
2018-05-13T13:39:36.126Z,65.80
2018-05-13T13:42:04.634Z,57.63
2018-05-13T13:44:34.131Z,68.30
2018-05-13T13:47:02.391Z,82.20
2018-05-13T13:49:30.587Z,69.67
2018-05-13T13:51:59.059Z,72.70
2018-05-13T13:54:27.982Z,65.10
2018-05-13T13:56:56.254Z,60.50
2018-05-13T13:59:24.516Z,66.33
2018-05-13T14:01:53.418Z,63.07
2018-05-13T14:04:21.725Z,54.60
2018-05-13T14:06:49.810Z,54.07
2018-05-13T14:09:17.886Z,63.90
2018-05-13T14:11:46.561Z,54.23
2018-05-13T14:14:14.944Z,56.13
2018-05-13T14:16:43.527Z,63.40
2018-05-13T14:19:12.453Z,69.33
2018-05-13T14:21:41.376Z,58.47
2018-05-13T14:24:09.429Z,61.00
2018-05-13T14:26:37.891Z,63.40
2018-05-13T14:29:06.804Z,64.50
2018-05-13T14:31:34.884Z,67.33
2018-05-13T14:34:03.039Z,69.67
2018-05-13T14:36:32.036Z,62.73
2018-05-13T14:39:11.820Z,61.53
2018-05-13T14:41:29.271Z,57.27
2018-05-13T14:43:57.659Z,56.80
2018-05-13T14:46:27.271Z,65.93
2018-05-13T14:48:56.258Z,61.37
2018-05-13T14:57:20.897Z,56.57
2018-05-13T14:59:50.074Z,53.50
2018-05-13T15:02:18.386Z,60.97
2018-05-13T15:04:47.415Z,63.50
2018-05-13T15:07:25.030Z,57.37
2018-05-13T15:09:53.625Z,61.73
2018-05-13T15:12:22.547Z,55.97
2018-05-13T15:14:53.065Z,59.10
2018-05-13T15:17:21.356Z,58.93
2018-05-13T15:19:49.664Z,56.70
2018-05-13T15:22:17.889Z,53.90
2018-05-13T15:24:47.880Z,61.87
2018-05-13T15:27:16.273Z,56.47
2018-05-13T15:29:44.478Z,54.77
2018-05-13T15:32:20.240Z,56.70
2018-05-13T15:34:48.570Z,54.33
2018-05-13T15:37:17.344Z,55.37
2018-05-13T15:39:45.635Z,55.33
2018-05-13T15:42:17.161Z,62.00
2018-05-13T15:45:00.045Z,57.97
2018-05-13T15:47:36.705Z,58.00
2018-05-13T15:50:05.028Z,55.90
2018-05-13T15:52:33.388Z,57.93
2018-05-13T15:55:01.654Z,58.67
2018-05-13T15:57:29.972Z,53.80
2018-05-13T15:59:58.273Z,58.63
2018-05-13T16:02:28.047Z,54.50
2018-05-13T16:04:56.424Z,60.33
2018-05-13T16:07:25.294Z,69.03
2018-05-13T16:09:53.632Z,82.90
2018-05-13T16:12:23.382Z,80.77
2018-05-13T16:14:51.545Z,54.13
2018-05-13T16:17:20.616Z,59.77
2018-05-13T16:19:50.582Z,64.77
2018-05-13T16:22:18.934Z,63.33
2018-05-13T16:24:47.285Z,63.60
2018-05-13T17:06:32.035Z,63.00
2018-05-13T17:09:00.860Z,54.47
2018-05-13T17:11:32.144Z,64.33
2018-05-13T17:14:03.418Z,60.77
2018-05-13T17:16:35.807Z,58.30
2018-05-13T17:19:04.228Z,57.47
2018-05-13T18:07:55.812Z,80.27
2018-05-13T18:10:24.147Z,73.97
2018-05-13T18:12:53.280Z,80.50
2018-05-13T18:15:22.012Z,87.17
2018-05-13T18:17:51.573Z,74.73
2018-05-13T18:20:19.781Z,81.83
2018-05-13T18:22:48.296Z,79.70
2018-05-13T18:25:16.532Z,75.07
2018-05-13T18:27:45.929Z,80.43
2018-05-13T18:30:15.301Z,79.00
2018-05-13T18:32:43.622Z,83.97
2018-05-13T18:35:12.732Z,74.87
2018-05-13T18:37:42.638Z,77.03
2018-05-13T18:40:11.860Z,79.20
2018-05-13T18:42:40.149Z,73.73
2018-05-13T18:47:44.201Z,76.30
2018-05-13T18:50:12.894Z,80.27
2018-05-13T18:52:41.360Z,81.90
2018-05-13T18:55:09.927Z,82.40
2018-05-13T18:57:39.175Z,78.53
2018-05-13T19:00:14.896Z,78.90
2018-05-13T19:02:43.310Z,74.20
2018-05-13T19:05:12.393Z,77.00
2018-05-13T19:07:41.468Z,80.57
2018-05-13T19:13:07.123Z,74.13
2018-05-13T19:15:45.249Z,78.77
2018-05-13T19:18:18.580Z,78.50
2018-05-13T19:20:48.152Z,75.00
2018-05-13T19:23:17.473Z,73.77
2018-05-13T19:25:52.707Z,78.03
2018-05-13T19:28:21.274Z,75.60
2018-05-13T19:44:45.785Z,75.80
2018-05-13T19:47:14.654Z,73.83
2018-05-13T19:49:45.184Z,77.83
2018-05-13T19:52:14.015Z,81.63
2018-05-13T19:54:42.809Z,72.50
2018-05-13T19:57:11.348Z,78.53
2018-05-13T19:59:41.024Z,82.20
2018-05-13T20:02:13.695Z,79.87
2018-05-13T20:04:42.007Z,81.47
2018-05-13T20:07:10.448Z,76.50
2018-05-13T20:09:40.089Z,81.87
2018-05-13T20:12:09.283Z,81.57
2018-05-13T20:14:37.567Z,68.23
2018-05-13T20:17:27.471Z,81.77
2018-05-13T20:19:56.505Z,70.50
2018-05-13T20:22:28.628Z,70.53
2018-05-13T20:24:57.369Z,83.30
2018-05-13T20:27:27.080Z,81.10
2018-05-13T20:29:57.925Z,76.10
2018-05-13T20:32:31.389Z,68.70
2018-05-13T20:35:00.708Z,76.87
2018-05-13T20:37:29.088Z,85.57
2018-05-13T20:39:57.588Z,81.87
2018-05-13T20:42:26.825Z,82.10
2018-05-13T20:44:56.479Z,78.00
2018-05-13T20:47:27.450Z,68.67
2018-05-13T20:50:07.801Z,79.77
